Time;durP1;ratioP1;P1;durP2;ratioP2;P2;SDS_P1;SDS_P2;PMS_P1;PMS_P2;Temp;Humidity;BMP_temperature;BMP_pressure;BME280_temperature;BME280_humidity;BME280_pressure;Samples;Min_cycle;Max_cycle;Signal;HPM_P1;HPM_P2
2022/07/30 00:02:22;;;;;;;;;;;15.20;99.90;;;;;;4933215;28;19934;-77
2022/07/30 00:04:48;;;;;;;;;;;15.20;99.90;;;;;;4943852;28;19969;-76
2022/07/30 00:07:14;;;;;;;;;;;15.30;99.90;;;;;;4953014;28;20017;-77
2022/07/30 00:09:40;;;;;;;;;;;15.30;99.90;;;;;;4963934;28;19977;-76
2022/07/30 00:12:06;;;;;;;;;;;15.30;99.90;;;;;;4962793;28;19945;-76
2022/07/30 00:14:33;;;;;;;;;;;15.30;99.90;;;;;;4969177;28;19933;-76
2022/07/30 00:17:00;;;;;;;;;;;15.30;99.90;;;;;;4940036;28;20289;-76
2022/07/30 00:19:26;;;;;;;;;;;15.30;99.90;;;;;;4963116;28;20464;-76
2022/07/30 00:21:53;;;;;;;;;;;15.30;99.90;;;;;;4948269;28;19981;-76
2022/07/30 00:24:20;;;;;;;;;;;15.30;99.90;;;;;;4951800;28;19969;-76
2022/07/30 00:26:46;;;;;;;;;;;15.30;99.90;;;;;;4946915;28;20679;-77
2022/07/30 00:29:13;;;;;;;;;;;15.30;99.90;;;;;;4963043;28;19930;-77
2022/07/30 00:31:39;;;;;;;;;;;15.30;99.90;;;;;;4941255;28;19998;-75
2022/07/30 00:34:05;;;;;;;;;;;15.20;99.90;;;;;;4961358;28;19937;-76
2022/07/30 00:36:30;;;;;;;;;;;15.20;99.90;;;;;;4942289;28;20037;-76
2022/07/30 00:38:56;;;;;;;;;;;15.20;99.90;;;;;;4953626;28;19926;-76
2022/07/30 00:41:22;;;;;;;;;;;15.20;99.90;;;;;;4955616;28;19930;-77
2022/07/30 00:43:48;;;;;;;;;;;15.10;99.90;;;;;;4949870;28;19938;-76
2022/07/30 00:46:14;;;;;;;;;;;15.10;99.90;;;;;;4965913;28;19933;-77
2022/07/30 00:48:40;;;;;;;;;;;14.90;99.90;;;;;;4955792;28;20027;-76
2022/07/30 00:51:06;;;;;;;;;;;14.90;99.90;;;;;;4965277;28;20399;-76
2022/07/30 00:53:32;;;;;;;;;;;14.80;99.90;;;;;;4951526;28;19926;-76
2022/07/30 00:55:58;;;;;;;;;;;14.80;99.90;;;;;;4950923;28;19926;-77
2022/07/30 00:58:24;;;;;;;;;;;14.80;99.90;;;;;;4956005;28;19956;-76
2022/07/30 01:00:50;;;;;;;;;;;14.80;99.90;;;;;;4966864;28;20005;-76
2022/07/30 01:03:15;;;;;;;;;;;14.70;99.90;;;;;;4968705;28;19934;-77
2022/07/30 01:05:41;;;;;;;;;;;14.80;99.90;;;;;;4969042;28;19926;-76
2022/07/30 01:08:07;;;;;;;;;;;14.70;99.90;;;;;;4962654;28;19926;-76
2022/07/30 01:10:33;;;;;;;;;;;14.70;99.90;;;;;;4972638;28;20324;-77
2022/07/30 01:13:00;;;;;;;;;;;14.70;99.90;;;;;;4943311;28;19926;-77
2022/07/30 01:15:26;;;;;;;;;;;14.70;99.90;;;;;;4943791;28;19930;-77
2022/07/30 01:17:53;;;;;;;;;;;14.60;99.90;;;;;;4960283;28;20000;-76
2022/07/30 01:20:25;;;;;;;;;;;14.50;99.90;;;;;;4950082;28;19929;-77
2022/07/30 01:23:11;;;;;;;;;;;14.50;99.90;;;;;;4949591;28;19973;-77
2022/07/30 01:25:43;;;;;;;;;;;14.40;99.90;;;;;;4963352;28;19937;-76
2022/07/30 01:28:10;;;;;;;;;;;14.70;99.90;;;;;;4945877;28;19926;-76
2022/07/30 01:30:38;;;;;;;;;;;14.70;99.90;;;;;;4946608;28;19980;-76
2022/07/30 01:33:05;;;;;;;;;;;14.50;99.90;;;;;;4960929;28;19926;-77
2022/07/30 01:35:32;;;;;;;;;;;14.50;99.90;;;;;;4955004;28;19933;-77
2022/07/30 01:37:59;;;;;;;;;;;14.50;99.90;;;;;;4957988;28;20273;-76
2022/07/30 01:40:26;;;;;;;;;;;14.80;99.90;;;;;;4971036;28;19930;-77
2022/07/30 01:42:53;;;;;;;;;;;14.60;99.90;;;;;;4957111;28;19985;-76
2022/07/30 01:45:19;;;;;;;;;;;;;;;;;;4958954;28;20377;-76
2022/07/30 01:47:46;;;;;;;;;;;14.40;99.90;;;;;;4957720;28;19941;-77
2022/07/30 01:50:13;;;;;;;;;;;14.10;99.90;;;;;;4955686;28;19930;-77
2022/07/30 01:52:40;;;;;;;;;;;14.30;99.90;;;;;;4962391;28;19930;-76
2022/07/30 01:55:07;;;;;;;;;;;14.30;99.90;;;;;;4963231;28;20468;-78
2022/07/30 01:57:34;;;;;;;;;;;14.30;99.90;;;;;;4962833;28;20400;-77
2022/07/30 02:00:02;;;;;;;;;;;14.40;99.90;;;;;;4968520;28;19952;-78
2022/07/30 02:02:27;;;;;;;;;;;14.40;99.90;;;;;;4953540;28;19976;-78
2022/07/30 02:04:53;;;;;;;;;;;14.30;99.90;;;;;;4974468;28;19976;-77
2022/07/30 02:07:26;;;;;;;;;;;14.30;99.90;;;;;;5011601;23;20027;-77
2022/07/30 02:10:12;;;;;;;;;;;14.30;99.90;;;;;;4995791;28;19929;-77
2022/07/30 02:12:59;;;;;;;;;;;14.30;99.90;;;;;;4998762;28;19925;-78
2022/07/30 02:15:42;;;;;;;;;;;14.30;99.90;;;;;;4997079;28;19933;-79
2022/07/30 02:18:11;;;;;;;;;;;14.30;99.90;;;;;;4994372;28;19933;-78
2022/07/30 02:20:38;;;;;;;;;;;14.30;99.90;;;;;;5004117;28;20008;-78
2022/07/30 02:23:09;;;;;;;;;;;14.60;99.90;;;;;;5002348;28;20047;-78
2022/07/30 02:25:37;;;;;;;;;;;14.30;99.90;;;;;;5001037;28;19930;-79
2022/07/30 02:28:06;;;;;;;;;;;14.30;99.90;;;;;;4992586;28;20026;-79
2022/07/30 02:30:34;;;;;;;;;;;14.30;99.90;;;;;;4973133;28;19930;-78
2022/07/30 02:33:02;;;;;;;;;;;14.30;99.90;;;;;;4983993;28;20020;-80
2022/07/30 02:35:28;;;;;;;;;;;14.20;99.90;;;;;;5001391;28;20284;-79
2022/07/30 02:37:55;;;;;;;;;;;14.20;99.90;;;;;;4995372;28;19976;-80
2022/07/30 02:40:23;;;;;;;;;;;14.20;99.90;;;;;;4999276;28;20310;-79
2022/07/30 02:42:51;;;;;;;;;;;14.20;99.90;;;;;;4988245;28;20303;-78
2022/07/30 02:45:19;;;;;;;;;;;14.30;99.90;;;;;;4991961;28;19975;-79
2022/07/30 02:47:47;;;;;;;;;;;14.30;99.90;;;;;;4986509;28;19975;-80
2022/07/30 02:50:14;;;;;;;;;;;14.20;99.90;;;;;;5002783;28;19925;-79
2022/07/30 02:52:41;;;;;;;;;;;14.20;99.90;;;;;;5008339;28;20012;-78
2022/07/30 02:55:11;;;;;;;;;;;14.20;99.90;;;;;;5010387;28;19937;-80
2022/07/30 02:57:38;;;;;;;;;;;14.20;99.90;;;;;;5008294;28;19937;-78
2022/07/30 03:00:04;;;;;;;;;;;14.20;99.90;;;;;;5003068;28;20383;-79
2022/07/30 03:02:31;;;;;;;;;;;14.20;99.90;;;;;;4995304;28;19937;-79
2022/07/30 03:04:58;;;;;;;;;;;14.20;99.90;;;;;;4996509;28;19929;-79
2022/07/30 03:07:25;;;;;;;;;;;14.20;99.90;;;;;;4983664;28;19933;-79
2022/07/30 03:09:53;;;;;;;;;;;14.10;99.90;;;;;;4977351;28;19926;-79
2022/07/30 03:12:20;;;;;;;;;;;14.10;99.90;;;;;;4993784;28;20195;-78
2022/07/30 03:14:46;;;;;;;;;;;14.10;99.90;;;;;;4996621;28;19969;-77
2022/07/30 03:17:14;;;;;;;;;;;14.10;99.90;;;;;;4961856;28;20210;-79
2022/07/30 03:19:42;;;;;;;;;;;14.00;99.90;;;;;;5005453;28;19925;-78
2022/07/30 03:22:10;;;;;;;;;;;14.00;99.90;;;;;;4972688;28;20203;-80
2022/07/30 03:24:39;;;;;;;;;;;13.90;99.90;;;;;;4999956;28;19929;-79
2022/07/30 03:27:05;;;;;;;;;;;13.90;99.90;;;;;;5001942;28;19958;-80
2022/07/30 03:29:33;;;;;;;;;;;13.80;99.90;;;;;;4984531;28;20283;-80
2022/07/30 03:31:59;;;;;;;;;;;13.80;99.90;;;;;;5000223;28;20302;-80
2022/07/30 03:34:26;;;;;;;;;;;13.80;99.90;;;;;;4973451;28;19921;-81
2022/07/30 03:36:56;;;;;;;;;;;13.80;99.90;;;;;;4977163;28;19934;-80
2022/07/30 03:39:22;;;;;;;;;;;13.60;99.90;;;;;;4989126;28;20422;-80
2022/07/30 03:41:48;;;;;;;;;;;13.60;99.90;;;;;;4970855;28;19937;-80
2022/07/30 03:44:14;;;;;;;;;;;13.50;99.90;;;;;;4989204;28;19930;-79
2022/07/30 03:46:40;;;;;;;;;;;13.50;99.90;;;;;;4997486;28;20040;-80
2022/07/30 03:49:07;;;;;;;;;;;13.50;99.90;;;;;;4975964;28;20020;-80
2022/07/30 03:51:33;;;;;;;;;;;13.50;99.90;;;;;;4985568;28;20270;-81
2022/07/30 03:54:00;;;;;;;;;;;13.50;99.90;;;;;;4974504;28;19995;-80
2022/07/30 03:56:26;;;;;;;;;;;13.50;99.90;;;;;;4993779;28;20315;-80
2022/07/30 03:58:51;;;;;;;;;;;13.50;99.90;;;;;;4975871;28;19935;-80
2022/07/30 04:01:17;;;;;;;;;;;13.40;99.90;;;;;;4989291;28;19936;-80
2022/07/30 04:03:43;;;;;;;;;;;13.40;99.90;;;;;;4972251;28;20260;-81
2022/07/30 04:06:09;;;;;;;;;;;13.30;99.90;;;;;;4980725;28;19937;-82
2022/07/30 04:08:34;;;;;;;;;;;13.30;99.90;;;;;;4975572;28;19929;-83
2022/07/30 04:11:00;;;;;;;;;;;13.30;99.90;;;;;;4971803;28;19930;-82
2022/07/30 04:13:26;;;;;;;;;;;13.30;99.90;;;;;;4975087;28;20308;-81
2022/07/30 04:16:08;;;;;;;;;;;13.30;99.90;;;;;;4978959;28;20028;-81
2022/07/30 04:18:36;;;;;;;;;;;13.30;99.90;;;;;;4993518;28;19964;-80
2022/07/30 04:21:04;;;;;;;;;;;13.30;99.90;;;;;;4996837;28;19929;-79
2022/07/30 04:23:31;;;;;;;;;;;13.40;99.90;;;;;;4988398;28;19929;-81
2022/07/30 04:25:57;;;;;;;;;;;13.50;99.90;;;;;;4962858;28;19991;-82
2022/07/30 04:28:25;;;;;;;;;;;13.50;99.90;;;;;;4973920;28;19979;-80
2022/07/30 04:30:51;;;;;;;;;;;13.50;99.90;;;;;;4998288;28;19926;-82
2022/07/30 04:33:17;;;;;;;;;;;13.60;99.90;;;;;;4976405;28;20339;-81
2022/07/30 04:35:44;;;;;;;;;;;13.70;99.90;;;;;;4978239;28;19929;-82
2022/07/30 04:38:11;;;;;;;;;;;13.70;99.90;;;;;;4992193;28;19933;-81
2022/07/30 04:40:38;;;;;;;;;;;13.80;99.90;;;;;;4979493;28;20304;-80
2022/07/30 04:43:04;;;;;;;;;;;13.90;99.90;;;;;;4962103;28;19934;-81
2022/07/30 04:45:43;;;;;;;;;;;13.90;99.90;;;;;;4988380;28;20364;-81
2022/07/30 04:48:09;;;;;;;;;;;14.00;99.90;;;;;;4972166;28;20403;-79
2022/07/30 04:50:37;;;;;;;;;;;14.10;99.90;;;;;;4971458;28;19971;-80
2022/07/30 04:53:04;;;;;;;;;;;14.10;99.90;;;;;;4974032;28;19979;-81
2022/07/30 04:55:31;;;;;;;;;;;14.20;99.90;;;;;;4986338;28;19975;-81
2022/07/30 04:57:58;;;;;;;;;;;14.30;99.90;;;;;;4991067;28;19976;-82
2022/07/30 05:00:24;;;;;;;;;;;14.30;99.90;;;;;;4972098;28;19933;-81
2022/07/30 05:02:50;;;;;;;;;;;14.40;99.90;;;;;;4996181;28;19929;-81
2022/07/30 05:05:19;;;;;;;;;;;14.40;99.90;;;;;;4996474;28;20288;-81
2022/07/30 05:07:51;;;;;;;;;;;14.50;99.90;;;;;;5004597;28;19925;-79
2022/07/30 05:10:18;;;;;;;;;;;14.50;99.90;;;;;;4997004;28;19934;-79
2022/07/30 05:12:44;;;;;;;;;;;14.50;99.90;;;;;;4976138;28;19932;-80
2022/07/30 05:15:10;;;;;;;;;;;14.60;99.90;;;;;;4977134;28;20652;-79
2022/07/30 05:17:38;;;;;;;;;;;14.70;99.90;;;;;;4972723;28;20019;-78
2022/07/30 05:20:04;;;;;;;;;;;14.70;99.90;;;;;;4995786;28;20181;-79
2022/07/30 05:22:29;;;;;;;;;;;14.70;99.90;;;;;;4973049;28;19925;-78
2022/07/30 05:24:56;;;;;;;;;;;14.80;99.90;;;;;;4996021;28;20302;-78
2022/07/30 05:27:22;;;;;;;;;;;14.90;99.90;;;;;;4970675;28;20020;-79
2022/07/30 05:29:48;;;;;;;;;;;14.90;99.90;;;;;;4958287;28;20017;-78
2022/07/30 05:32:13;;;;;;;;;;;15.00;99.90;;;;;;4975436;28;20788;-77
2022/07/30 05:34:39;;;;;;;;;;;15.10;99.90;;;;;;4982189;28;20387;-77
2022/07/30 05:37:05;;;;;;;;;;;15.10;99.90;;;;;;4973541;28;19926;-77
2022/07/30 05:39:31;;;;;;;;;;;15.20;99.90;;;;;;4977161;28;19964;-76
2022/07/30 05:41:56;;;;;;;;;;;15.30;99.90;;;;;;5002769;28;19933;-77
2022/07/30 05:44:22;;;;;;;;;;;15.40;99.90;;;;;;4982073;28;19925;-77
2022/07/30 05:46:48;;;;;;;;;;;15.40;99.90;;;;;;4977265;28;19996;-77
2022/07/30 05:49:14;;;;;;;;;;;15.50;99.90;;;;;;4964193;28;19925;-77
2022/07/30 05:51:40;;;;;;;;;;;15.60;99.90;;;;;;4967138;28;19933;-77
2022/07/30 05:54:06;;;;;;;;;;;15.70;99.90;;;;;;5003309;28;20390;-78
2022/07/30 05:56:40;;;;;;;;;;;15.80;99.90;;;;;;4995581;28;20023;-76
2022/07/30 05:59:05;;;;;;;;;;;15.90;99.90;;;;;;4989535;28;20415;-77
2022/07/30 06:01:31;;;;;;;;;;;16.10;99.90;;;;;;4990949;28;20341;-76
2022/07/30 06:03:57;;;;;;;;;;;16.10;99.90;;;;;;4994785;28;20015;-77
2022/07/30 06:06:23;;;;;;;;;;;16.10;99.90;;;;;;4988100;28;20433;-77
2022/07/30 06:08:49;;;;;;;;;;;16.20;99.90;;;;;;4978967;28;19932;-77
2022/07/30 06:11:14;;;;;;;;;;;16.40;99.90;;;;;;4980036;28;20401;-78
2022/07/30 06:13:40;;;;;;;;;;;16.50;99.90;;;;;;4981908;28;19929;-79
2022/07/30 06:16:06;;;;;;;;;;;16.80;99.90;;;;;;4989511;28;19932;-78
2022/07/30 06:18:35;;;;;;;;;;;17.00;99.90;;;;;;5002876;28;19925;-78
2022/07/30 06:21:00;;;;;;;;;;;17.20;99.90;;;;;;5000960;28;19932;-78
2022/07/30 06:23:29;;;;;;;;;;;17.30;99.90;;;;;;5013913;28;19988;-80
2022/07/30 06:25:55;;;;;;;;;;;17.50;99.90;;;;;;4984841;28;19961;-79
2022/07/30 06:28:21;;;;;;;;;;;17.70;99.90;;;;;;4996922;28;19926;-79
2022/07/30 06:30:47;;;;;;;;;;;17.90;99.90;;;;;;4990161;28;19983;-81
2022/07/30 06:33:14;;;;;;;;;;;18.10;99.90;;;;;;4988067;28;19929;-81
2022/07/30 06:35:41;;;;;;;;;;;18.20;99.90;;;;;;5003061;28;19952;-80
2022/07/30 06:38:07;;;;;;;;;;;18.30;99.90;;;;;;5005470;28;20376;-80
2022/07/30 06:40:33;;;;;;;;;;;18.40;99.90;;;;;;4983939;28;19933;-80
2022/07/30 06:42:59;;;;;;;;;;;18.40;99.90;;;;;;4987436;28;20004;-80
2022/07/30 06:45:25;;;;;;;;;;;18.40;99.90;;;;;;4998256;28;20075;-81
2022/07/30 06:47:51;;;;;;;;;;;18.40;99.90;;;;;;5003691;28;20419;-80
2022/07/30 06:50:19;;;;;;;;;;;18.50;99.90;;;;;;4967927;28;20363;-80
2022/07/30 06:52:45;;;;;;;;;;;18.70;99.90;;;;;;4977328;28;19929;-80
2022/07/30 06:55:13;;;;;;;;;;;19.00;99.90;;;;;;4962442;28;19960;-80
2022/07/30 06:57:39;;;;;;;;;;;19.30;99.90;;;;;;4966828;28;19956;-82
2022/07/30 07:03:27;;;;;;;;;;;20.30;99.90;;;;;;4992370;28;20011;-81
2022/07/30 07:05:55;;;;;;;;;;;20.40;99.90;;;;;;4968497;28;19925;-81
2022/07/30 07:08:21;;;;;;;;;;;20.50;99.90;;;;;;4986707;28;19936;-83
2022/07/30 07:10:49;;;;;;;;;;;20.70;99.90;;;;;;4997262;28;19977;-81
2022/07/30 07:13:35;;;;;;;;;;;21.00;99.90;;;;;;4990423;28;19930;-85
2022/07/30 07:16:29;;;;;;;;;;;21.30;99.90;;;;;;4996456;28;20017;-81
2022/07/30 07:18:55;;;;;;;;;;;21.70;99.90;;;;;;4996396;28;21308;-82
2022/07/30 07:21:22;;;;;;;;;;;22.10;99.90;;;;;;4962432;28;20433;-80
2022/07/30 07:23:52;;;;;;;;;;;22.50;99.90;;;;;;4997940;28;19929;-80
2022/07/30 07:26:18;;;;;;;;;;;23.20;99.90;;;;;;4983247;28;19968;-79
2022/07/30 07:31:13;;;;;;;;;;;24.20;99.90;;;;;;5013789;28;19933;-78
2022/07/30 07:36:06;;;;;;;;;;;25.00;99.90;;;;;;5008425;28;20345;-82
2022/07/30 07:38:33;;;;;;;;;;;25.40;99.90;;;;;;4976204;28;20417;-83
2022/07/30 07:40:59;;;;;;;;;;;25.60;99.90;;;;;;4996739;28;19932;-81
2022/07/30 07:43:25;;;;;;;;;;;25.70;99.90;;;;;;4995618;28;19929;-83
2022/07/30 07:45:52;;;;;;;;;;;25.60;99.90;;;;;;4964561;28;19971;-81
2022/07/30 07:48:18;;;;;;;;;;;25.70;99.90;;;;;;4999546;28;19926;-81
2022/07/30 07:54:11;;;;;;;;;;;26.00;99.90;;;;;;5014123;23;20200;-81
2022/07/30 07:56:38;;;;;;;;;;;26.40;99.90;;;;;;4956285;28;19933;-80
2022/07/30 07:59:09;;;;;;;;;;;26.80;99.90;;;;;;4955905;28;19956;-80
2022/07/30 08:01:35;;;;;;;;;;;27.30;99.90;;;;;;4964451;28;20357;-82
2022/07/30 08:04:01;;;;;;;;;;;27.50;99.90;;;;;;4982011;28;20468;-81
2022/07/30 08:06:27;;;;;;;;;;;27.40;99.90;;;;;;4955959;28;20009;-80
2022/07/30 08:08:54;;;;;;;;;;;27.40;99.90;;;;;;4962379;28;19953;-81
2022/07/30 08:11:19;;;;;;;;;;;27.60;99.90;;;;;;4956183;28;19996;-79
2022/07/30 08:13:45;;;;;;;;;;;27.90;99.90;;;;;;4962932;28;19984;-82
2022/07/30 08:16:13;;;;;;;;;;;27.90;99.90;;;;;;4962608;28;19926;-82
2022/07/30 08:18:42;;;;;;;;;;;27.70;99.90;;;;;;4962717;28;19921;-80
2022/07/30 08:21:08;;;;;;;;;;;28.00;99.90;;;;;;4974108;28;19925;-79
2022/07/30 08:23:33;;;;;;;;;;;28.30;99.90;;;;;;4958422;28;19930;-80
2022/07/30 08:26:02;;;;;;;;;;;28.60;99.90;;;;;;4959490;28;20391;-84
2022/07/30 08:28:36;;;;;;;;;;;28.40;99.20;;;;;;4939370;28;19994;-84
2022/07/30 08:31:11;;;;;;;;;;;27.90;98.20;;;;;;4971469;28;19925;-81
2022/07/30 08:33:36;;;;;;;;;;;27.80;98.30;;;;;;4973657;28;19965;-80
2022/07/30 08:36:02;;;;;;;;;;;27.50;98.70;;;;;;4945725;28;19992;-79
2022/07/30 08:38:28;;;;;;;;;;;27.70;99.90;;;;;;4971430;28;19926;-81
2022/07/30 08:40:55;;;;;;;;;;;28.00;98.50;;;;;;4954757;28;19922;-80
2022/07/30 08:43:21;;;;;;;;;;;28.20;99.60;;;;;;4971931;28;19968;-81
2022/07/30 08:45:47;;;;;;;;;;;28.10;98.90;;;;;;4953987;28;19930;-81
2022/07/30 08:48:15;;;;;;;;;;;28.00;97.90;;;;;;4972340;28;19922;-80
2022/07/30 08:50:54;;;;;;;;;;;27.20;98.00;;;;;;4989214;28;20032;-82
2022/07/30 08:53:20;;;;;;;;;;;26.50;99.20;;;;;;4940480;28;20056;-81
2022/07/30 08:55:46;;;;;;;;;;;25.70;99.90;;;;;;4973182;28;20353;-80
2022/07/30 08:58:41;;;;;;;;;;;25.70;99.90;;;;;;4977931;28;20355;-81
2022/07/30 09:01:08;;;;;;;;;;;25.70;99.90;;;;;;4948131;28;19969;-84
2022/07/30 09:03:34;;;;;;;;;;;25.70;99.90;;;;;;4973370;28;19972;-80
2022/07/30 09:06:00;;;;;;;;;;;26.10;99.90;;;;;;4991122;28;19940;-79
2022/07/30 09:08:26;;;;;;;;;;;26.30;99.90;;;;;;4972884;28;20274;-79
2022/07/30 09:10:52;;;;;;;;;;;26.70;99.90;;;;;;4977076;28;19929;-83
2022/07/30 09:16:25;;;;;;;;;;;26.40;99.90;;;;;;4977705;28;19930;-81
2022/07/30 09:19:09;;;;;;;;;;;26.10;99.90;;;;;;4969481;28;19973;-80
2022/07/30 09:22:10;;;;;;;;;;;26.10;99.90;;;;;;4980761;28;19973;-79
2022/07/30 09:24:43;;;;;;;;;;;26.10;99.90;;;;;;4955161;28;19936;-81
2022/07/30 09:27:08;;;;;;;;;;;26.10;99.90;;;;;;4941045;28;20292;-84
2022/07/30 09:29:35;;;;;;;;;;;26.00;99.90;;;;;;4950730;28;19926;-87
2022/07/30 09:32:02;;;;;;;;;;;25.80;99.90;;;;;;4945981;28;19926;-82
2022/07/30 09:34:34;;;;;;;;;;;25.60;99.90;;;;;;4954388;28;19973;-83
2022/07/30 09:37:01;;;;;;;;;;;25.70;99.90;;;;;;4970802;28;19957;-83
2022/07/30 09:39:34;;;;;;;;;;;25.60;99.90;;;;;;4970485;28;19929;-79
2022/07/30 09:42:25;;;;;;;;;;;25.80;99.90;;;;;;4971301;28;19930;-80
2022/07/30 09:45:03;;;;;;;;;;;25.90;99.90;;;;;;4969030;28;19967;-80
2022/07/30 09:47:30;;;;;;;;;;;26.10;99.90;;;;;;4946227;28;19925;-81
2022/07/30 09:50:16;;;;;;;;;;;26.20;99.90;;;;;;4968564;28;19932;-84
2022/07/30 09:52:43;;;;;;;;;;;26.10;99.80;;;;;;4970501;28;19934;-82
2022/07/30 09:55:09;;;;;;;;;;;26.20;99.90;;;;;;4953610;28;20106;-81
2022/07/30 09:57:52;;;;;;;;;;;26.10;99.90;;;;;;4942004;28;20038;-85
2022/07/30 10:00:20;;;;;;;;;;;26.10;99.90;;;;;;4930301;28;19937;-79
2022/07/30 10:02:46;;;;;;;;;;;26.30;99.90;;;;;;4950723;28;19934;-81
2022/07/30 10:05:16;;;;;;;;;;;26.60;99.90;;;;;;4965735;28;20300;-79
2022/07/30 10:07:49;;;;;;;;;;;26.70;99.90;;;;;;4967522;28;20089;-80
2022/07/30 10:10:30;;;;;;;;;;;26.30;97.80;;;;;;4969574;28;20308;-80
2022/07/30 10:13:02;;;;;;;;;;;26.30;97.70;;;;;;4968555;28;19933;-81
2022/07/30 10:15:30;;;;;;;;;;;26.10;97.80;;;;;;4969575;28;19957;-80
2022/07/30 10:17:57;;;;;;;;;;;26.10;98.00;;;;;;4956968;28;19926;-78
2022/07/30 10:20:26;;;;;;;;;;;26.20;98.30;;;;;;4971813;28;20273;-79
2022/07/30 10:23:04;;;;;;;;;;;26.20;97.90;;;;;;4958319;28;19973;-79
2022/07/30 10:25:32;;;;;;;;;;;26.30;97.40;;;;;;4969539;28;19942;-81
2022/07/30 10:27:58;;;;;;;;;;;26.50;96.80;;;;;;4966674;28;19991;-81
2022/07/30 10:30:25;;;;;;;;;;;26.70;96.60;;;;;;4955440;28;20305;-80
2022/07/30 10:36:32;;;;;;;;;;;26.80;95.40;;;;;;4902236;29;20082;-81
2022/07/30 10:39:25;;;;;;;;;;;26.90;94.70;;;;;;4899158;29;19931;-82
2022/07/30 10:41:54;;;;;;;;;;;26.80;94.60;;;;;;4903098;29;20211;-80
2022/07/30 10:44:32;;;;;;;;;;;27.10;95.10;;;;;;4879292;29;19927;-82
2022/07/30 10:47:02;;;;;;;;;;;27.00;93.80;;;;;;4886969;29;20327;-79
2022/07/30 10:49:28;;;;;;;;;;;27.10;95.00;;;;;;4898193;29;19959;-84
2022/07/30 10:51:54;;;;;;;;;;;26.70;93.50;;;;;;4895094;29;19927;-86
2022/07/30 10:54:39;;;;;;;;;;;26.60;94.00;;;;;;4893869;29;19970;-84
2022/07/30 10:57:11;;;;;;;;;;;26.40;94.00;;;;;;4926385;28;19976;-84
2022/07/30 10:59:57;;;;;;;;;;;26.30;94.60;;;;;;4955610;28;20041;-85
2022/07/30 11:02:24;;;;;;;;;;;26.10;94.60;;;;;;4940864;28;20033;-80
2022/07/30 11:04:56;;;;;;;;;;;26.30;95.20;;;;;;4957145;28;20357;-81
2022/07/30 11:07:28;;;;;;;;;;;26.20;95.30;;;;;;4934875;28;20468;-81
2022/07/30 11:09:59;;;;;;;;;;;26.20;95.10;;;;;;4971069;28;19926;-80
2022/07/30 11:12:44;;;;;;;;;;;26.00;94.90;;;;;;4938935;28;19942;-82
2022/07/30 11:15:11;;;;;;;;;;;25.70;95.10;;;;;;4952332;28;19985;-80
2022/07/30 11:18:02;;;;;;;;;;;25.50;95.10;;;;;;4959712;28;20452;-78
2022/07/30 11:20:28;;;;;;;;;;;25.30;96.20;;;;;;4949857;28;19937;-79
2022/07/30 11:23:16;;;;;;;;;;;25.30;96.10;;;;;;4954223;28;20299;-79
2022/07/30 11:25:42;;;;;;;;;;;25.10;96.60;;;;;;4922412;28;19927;-79
2022/07/30 11:28:28;;;;;;;;;;;24.90;97.80;;;;;;4953190;28;19927;-82
2022/07/30 11:30:55;;;;;;;;;;;24.60;98.10;;;;;;4959901;28;19984;-81
2022/07/30 11:33:22;;;;;;;;;;;24.60;98.70;;;;;;4976251;28;19928;-83
2022/07/30 11:36:10;;;;;;;;;;;24.70;99.80;;;;;;4967214;28;19937;-81
2022/07/30 11:39:02;;;;;;;;;;;24.60;99.90;;;;;;4936333;28;19984;-84
2022/07/30 11:41:28;;;;;;;;;;;24.60;99.90;;;;;;4948361;28;20017;-86
2022/07/30 11:44:12;;;;;;;;;;;24.40;99.90;;;;;;4935779;28;20012;-80
2022/07/30 11:46:49;;;;;;;;;;;24.20;99.90;;;;;;4967940;23;19948;-81
2022/07/30 11:49:15;;;;;;;;;;;24.00;99.90;;;;;;4969245;28;19925;-79
2022/07/30 11:51:45;;;;;;;;;;;24.10;99.90;;;;;;4978985;28;20261;-80
2022/07/30 11:54:11;;;;;;;;;;;24.10;99.90;;;;;;4972919;28;19972;-81
2022/07/30 11:57:05;;;;;;;;;;;23.90;99.90;;;;;;4955618;28;20096;-81
2022/07/30 11:59:31;;;;;;;;;;;23.80;99.90;;;;;;4951131;28;20308;-80
2022/07/30 12:02:00;;;;;;;;;;;23.80;99.90;;;;;;4952838;28;19930;-81
2022/07/30 12:04:25;;;;;;;;;;;23.70;99.90;;;;;;4971261;28;20400;-79
2022/07/30 12:06:52;;;;;;;;;;;23.70;99.90;;;;;;4972673;28;19945;-81
2022/07/30 12:09:22;;;;;;;;;;;23.70;99.90;;;;;;4940594;28;20040;-81
2022/07/30 12:11:47;;;;;;;;;;;23.60;99.90;;;;;;4941663;28;19965;-85
2022/07/30 12:14:13;;;;;;;;;;;23.60;99.90;;;;;;4978146;28;20031;-80
2022/07/30 12:16:48;;;;;;;;;;;23.70;99.90;;;;;;4955990;28;20392;-79
2022/07/30 12:19:14;;;;;;;;;;;23.80;99.90;;;;;;4948370;28;19937;-79
2022/07/30 12:21:40;;;;;;;;;;;24.00;99.90;;;;;;4972140;28;19926;-79
2022/07/30 12:24:06;;;;;;;;;;;24.10;99.90;;;;;;4966971;28;20016;-79
2022/07/30 12:26:33;;;;;;;;;;;24.00;99.90;;;;;;4969088;28;20013;-78
2022/07/30 12:29:06;;;;;;;;;;;24.10;99.90;;;;;;4956550;28;19929;-81
2022/07/30 12:31:32;;;;;;;;;;;24.10;99.90;;;;;;5094965;23;19930;-80
2022/07/30 12:34:22;;;;;;;;;;;24.00;99.90;;;;;;4987997;28;20328;-78
2022/07/30 12:37:08;;;;;;;;;;;24.00;99.90;;;;;;4993521;28;19943;-79
2022/07/30 12:39:34;;;;;;;;;;;23.90;99.90;;;;;;4980770;28;20141;-83
2022/07/30 12:42:02;;;;;;;;;;;23.60;99.90;;;;;;4996003;28;19932;-82
2022/07/30 12:44:34;;;;;;;;;;;23.50;99.90;;;;;;4988254;28;19930;-82
2022/07/30 12:46:59;;;;;;;;;;;23.40;99.90;;;;;;4984773;28;20024;-86
2022/07/30 12:49:29;;;;;;;;;;;23.40;99.90;;;;;;4970214;28;20025;-82
2022/07/30 12:51:54;;;;;;;;;;;23.40;99.90;;;;;;4963268;28;19991;-83
2022/07/30 12:54:21;;;;;;;;;;;23.50;99.90;;;;;;4974376;28;19980;-87
2022/07/30 12:57:03;;;;;;;;;;;23.50;99.90;;;;;;4990143;28;19932;-82
2022/07/30 12:59:29;;;;;;;;;;;23.40;99.90;;;;;;4984325;28;19925;-82
2022/07/30 13:02:02;;;;;;;;;;;23.20;99.90;;;;;;4991380;28;19929;-80
2022/07/30 13:04:28;;;;;;;;;;;23.00;99.90;;;;;;4992659;28;20240;-82
2022/07/30 13:07:10;;;;;;;;;;;23.00;99.90;;;;;;4970110;28;20699;-83
2022/07/30 13:09:37;;;;;;;;;;;23.10;99.90;;;;;;4996200;28;19929;-82
2022/07/30 13:12:02;;;;;;;;;;;23.10;99.90;;;;;;4991570;28;19926;-84
2022/07/30 13:14:29;;;;;;;;;;;23.20;99.90;;;;;;4972203;28;20161;-84
2022/07/30 13:16:55;;;;;;;;;;;23.20;99.90;;;;;;4971676;28;20064;-82
2022/07/30 13:19:21;;;;;;;;;;;23.10;99.90;;;;;;4988242;28;19925;-83
2022/07/30 13:21:47;;;;;;;;;;;23.10;99.90;;;;;;4997892;28;19929;-84
2022/07/30 13:24:13;;;;;;;;;;;23.00;99.90;;;;;;4993522;28;20239;-85
2022/07/30 13:26:39;;;;;;;;;;;23.10;99.90;;;;;;4989110;28;19932;-85
2022/07/30 13:29:05;;;;;;;;;;;23.10;99.90;;;;;;4980680;28;19937;-84
2022/07/30 13:31:31;;;;;;;;;;;23.20;99.90;;;;;;4984741;28;20324;-81
2022/07/30 13:33:57;;;;;;;;;;;23.30;99.90;;;;;;4981014;28;20024;-82
2022/07/30 13:36:23;;;;;;;;;;;23.40;99.90;;;;;;4970279;28;20240;-83
2022/07/30 13:38:49;;;;;;;;;;;23.40;99.90;;;;;;4957044;28;19965;-82
2022/07/30 13:41:17;;;;;;;;;;;23.30;99.90;;;;;;4976333;28;20439;-84
2022/07/30 13:43:43;;;;;;;;;;;23.20;99.90;;;;;;4972398;28;19972;-83
2022/07/30 13:46:09;;;;;;;;;;;23.20;99.90;;;;;;4988451;28;19938;-86
2022/07/30 13:48:35;;;;;;;;;;;23.30;99.90;;;;;;4984599;28;20369;-81
2022/07/30 13:51:01;;;;;;;;;;;23.20;99.90;;;;;;4981814;28;19925;-80
2022/07/30 13:53:27;;;;;;;;;;;23.20;99.90;;;;;;4974769;28;19932;-84
2022/07/30 13:55:53;;;;;;;;;;;23.20;99.90;;;;;;4961194;28;19933;-85
2022/07/30 13:58:19;;;;;;;;;;;23.10;99.90;;;;;;4972519;28;20288;-82
2022/07/30 14:00:46;;;;;;;;;;;23.20;99.90;;;;;;4998488;28;19941;-87
2022/07/30 14:03:12;;;;;;;;;;;23.20;99.90;;;;;;4985630;28;19929;-82
2022/07/30 14:05:38;;;;;;;;;;;23.20;99.90;;;;;;4998128;28;19925;-82
2022/07/30 14:08:04;;;;;;;;;;;23.10;99.90;;;;;;4988853;28;19926;-84
2022/07/30 14:10:30;;;;;;;;;;;23.10;99.90;;;;;;4975614;28;19929;-84
2022/07/30 14:12:56;;;;;;;;;;;23.00;99.90;;;;;;4985826;28;19926;-82
2022/07/30 14:15:23;;;;;;;;;;;23.00;99.90;;;;;;4989094;28;19980;-81
2022/07/30 14:17:49;;;;;;;;;;;23.00;99.90;;;;;;4991907;28;19925;-83
2022/07/30 14:20:15;;;;;;;;;;;23.00;99.90;;;;;;4996887;28;19930;-85
2022/07/30 14:22:41;;;;;;;;;;;22.90;99.90;;;;;;4998022;28;19929;-82
2022/07/30 14:25:07;;;;;;;;;;;22.80;99.70;;;;;;4992843;28;19929;-82
2022/07/30 14:27:33;;;;;;;;;;;22.80;99.00;;;;;;4973028;28;19971;-82
2022/07/30 14:29:58;;;;;;;;;;;22.80;99.90;;;;;;4973175;28;20067;-80
2022/07/30 14:32:24;;;;;;;;;;;22.80;99.90;;;;;;4988335;28;19925;-83
2022/07/30 14:34:50;;;;;;;;;;;22.70;99.90;;;;;;4948987;28;20406;-85
2022/07/30 14:37:16;;;;;;;;;;;22.70;99.90;;;;;;4964781;28;19930;-84
2022/07/30 14:39:42;;;;;;;;;;;22.70;99.90;;;;;;4999317;28;19930;-84
2022/07/30 14:42:08;;;;;;;;;;;22.60;99.90;;;;;;4959722;28;19987;-84
2022/07/30 14:44:33;;;;;;;;;;;22.60;99.90;;;;;;4987700;28;19926;-86
2022/07/30 14:47:05;;;;;;;;;;;22.60;99.90;;;;;;4991798;28;20403;-81